sensor_id;sensor_type;location;lat;lon;timestamp;temperature;humidity
49503;DHT22;35409;48.776;9.204;2023-10-13T00:01:07;18.30;98.70
49503;DHT22;35409;48.776;9.204;2023-10-13T00:03:33;18.30;98.80
49503;DHT22;35409;48.776;9.204;2023-10-13T00:05:59;18.30;98.60
49503;DHT22;35409;48.776;9.204;2023-10-13T00:08:29;18.30;98.90
49503;DHT22;35409;48.776;9.204;2023-10-13T00:10:55;18.20;98.80
49503;DHT22;35409;48.776;9.204;2023-10-13T00:13:26;18.20;99.00
49503;DHT22;35409;48.776;9.204;2023-10-13T00:15:52;18.10;99.00
49503;DHT22;35409;48.776;9.204;2023-10-13T00:18:28;18.00;99.00
49503;DHT22;35409;48.776;9.204;2023-10-13T00:21:06;17.90;99.00
49503;DHT22;35409;48.776;9.204;2023-10-13T00:23:42;17.80;98.80
49503;DHT22;35409;48.776;9.204;2023-10-13T00:26:25;17.70;99.00
49503;DHT22;35409;48.776;9.204;2023-10-13T00:28:58;17.60;98.80
49503;DHT22;35409;48.776;9.204;2023-10-13T00:31:27;17.60;98.50
49503;DHT22;35409;48.776;9.204;2023-10-13T00:33:59;17.60;98.60
49503;DHT22;35409;48.776;9.204;2023-10-13T00:36:35;17.60;98.20
49503;DHT22;35409;48.776;9.204;2023-10-13T00:39:01;17.60;98.20
49503;DHT22;35409;48.776;9.204;2023-10-13T00:41:26;17.70;97.90
49503;DHT22;35409;48.776;9.204;2023-10-13T00:44:10;17.70;97.70
49503;DHT22;35409;48.776;9.204;2023-10-13T00:46:37;17.80;97.60
49503;DHT22;35409;48.776;9.204;2023-10-13T00:49:05;17.70;97.50
49503;DHT22;35409;48.776;9.204;2023-10-13T00:51:33;17.80;97.30
49503;DHT22;35409;48.776;9.204;2023-10-13T00:54:06;17.80;97.30
49503;DHT22;35409;48.776;9.204;2023-10-13T00:56:39;17.80;97.20
49503;DHT22;35409;48.776;9.204;2023-10-13T00:59:12;17.80;97.20
49503;DHT22;35409;48.776;9.204;2023-10-13T01:01:39;17.80;97.30
49503;DHT22;35409;48.776;9.204;2023-10-13T01:04:08;17.80;97.40
49503;DHT22;35409;48.776;9.204;2023-10-13T01:06:37;17.70;97.60
49503;DHT22;35409;48.776;9.204;2023-10-13T01:09:08;17.60;97.60
49503;DHT22;35409;48.776;9.204;2023-10-13T01:11:46;17.50;97.80
49503;DHT22;35409;48.776;9.204;2023-10-13T01:14:14;17.50;98.00
49503;DHT22;35409;48.776;9.204;2023-10-13T01:16:44;17.40;98.20
49503;DHT22;35409;48.776;9.204;2023-10-13T01:19:15;17.40;98.20
49503;DHT22;35409;48.776;9.204;2023-10-13T01:21:46;17.30;98.30
49503;DHT22;35409;48.776;9.204;2023-10-13T01:24:13;17.30;98.40
49503;DHT22;35409;48.776;9.204;2023-10-13T01:26:44;17.20;98.50
49503;DHT22;35409;48.776;9.204;2023-10-13T01:29:10;17.10;98.60
49503;DHT22;35409;48.776;9.204;2023-10-13T01:31:43;17.10;98.80
49503;DHT22;35409;48.776;9.204;2023-10-13T01:34:16;17.00;98.90
49503;DHT22;35409;48.776;9.204;2023-10-13T01:36:54;17.00;98.90
49503;DHT22;35409;48.776;9.204;2023-10-13T01:39:21;17.10;98.70
49503;DHT22;35409;48.776;9.204;2023-10-13T01:41:47;17.10;98.70
49503;DHT22;35409;48.776;9.204;2023-10-13T01:44:21;17.10;98.50
49503;DHT22;35409;48.776;9.204;2023-10-13T01:46:46;17.20;98.50
49503;DHT22;35409;48.776;9.204;2023-10-13T01:49:13;17.20;98.50
49503;DHT22;35409;48.776;9.204;2023-10-13T01:51:41;17.20;98.40
49503;DHT22;35409;48.776;9.204;2023-10-13T01:54:06;17.30;98.60
49503;DHT22;35409;48.776;9.204;2023-10-13T01:56:37;17.20;98.70
49503;DHT22;35409;48.776;9.204;2023-10-13T01:59:08;17.20;98.80
49503;DHT22;35409;48.776;9.204;2023-10-13T02:01:35;17.10;98.90
49503;DHT22;35409;48.776;9.204;2023-10-13T02:04:01;17.10;99.20
49503;DHT22;35409;48.776;9.204;2023-10-13T02:06:31;17.00;99.40
49503;DHT22;35409;48.776;9.204;2023-10-13T02:11:40;16.80;99.60
49503;DHT22;35409;48.776;9.204;2023-10-13T02:14:07;16.70;99.60
49503;DHT22;35409;48.776;9.204;2023-10-13T02:16:32;16.60;99.50
49503;DHT22;35409;48.776;9.204;2023-10-13T02:18:58;16.60;99.50
49503;DHT22;35409;48.776;9.204;2023-10-13T02:21:33;16.70;99.60
49503;DHT22;35409;48.776;9.204;2023-10-13T02:24:07;16.70;99.50
49503;DHT22;35409;48.776;9.204;2023-10-13T02:26:39;16.70;99.40
49503;DHT22;35409;48.776;9.204;2023-10-13T02:29:05;16.80;99.50
49503;DHT22;35409;48.776;9.204;2023-10-13T02:31:39;16.80;99.40
49503;DHT22;35409;48.776;9.204;2023-10-13T02:34:05;16.80;99.50
49503;DHT22;35409;48.776;9.204;2023-10-13T02:36:35;16.80;99.60
49503;DHT22;35409;48.776;9.204;2023-10-13T02:39:14;16.80;99.60
49503;DHT22;35409;48.776;9.204;2023-10-13T02:41:41;16.80;99.90
49503;DHT22;35409;48.776;9.204;2023-10-13T02:44:13;16.80;99.90
49503;DHT22;35409;48.776;9.204;2023-10-13T02:46:45;16.70;99.90
49503;DHT22;35409;48.776;9.204;2023-10-13T02:49:15;16.70;99.90
49503;DHT22;35409;48.776;9.204;2023-10-13T02:51:45;16.60;99.90
49503;DHT22;35409;48.776;9.204;2023-10-13T02:54:10;16.50;99.90
49503;DHT22;35409;48.776;9.204;2023-10-13T02:56:45;16.40;99.90
49503;DHT22;35409;48.776;9.204;2023-10-13T02:59:22;16.40;99.90
49503;DHT22;35409;48.776;9.204;2023-10-13T03:02:02;16.40;99.90
49503;DHT22;35409;48.776;9.204;2023-10-13T03:04:49;16.40;99.90
49503;DHT22;35409;48.776;9.204;2023-10-13T03:07:15;16.40;99.90
49503;DHT22;35409;48.776;9.204;2023-10-13T03:09:48;16.30;99.90
49503;DHT22;35409;48.776;9.204;2023-10-13T03:12:20;16.30;99.90
49503;DHT22;35409;48.776;9.204;2023-10-13T03:14:47;16.30;99.80
49503;DHT22;35409;48.776;9.204;2023-10-13T03:17:22;16.30;99.90
49503;DHT22;35409;48.776;9.204;2023-10-13T03:20:00;16.40;99.70
49503;DHT22;35409;48.776;9.204;2023-10-13T03:22:26;16.50;99.60
49503;DHT22;35409;48.776;9.204;2023-10-13T03:25:00;16.60;99.40
49503;DHT22;35409;48.776;9.204;2023-10-13T03:27:33;16.70;99.40
49503;DHT22;35409;48.776;9.204;2023-10-13T03:30:14;16.70;99.20
49503;DHT22;35409;48.776;9.204;2023-10-13T03:32:40;16.80;99.20
49503;DHT22;35409;48.776;9.204;2023-10-13T03:35:14;16.80;99.30
49503;DHT22;35409;48.776;9.204;2023-10-13T03:37:50;16.80;99.30
49503;DHT22;35409;48.776;9.204;2023-10-13T03:40:15;16.70;99.30
49503;DHT22;35409;48.776;9.204;2023-10-13T03:42:51;16.70;99.50
49503;DHT22;35409;48.776;9.204;2023-10-13T03:45:40;16.70;99.90
49503;DHT22;35409;48.776;9.204;2023-10-13T03:48:12;16.60;99.90
49503;DHT22;35409;48.776;9.204;2023-10-13T03:50:50;16.50;99.90
49503;DHT22;35409;48.776;9.204;2023-10-13T03:53:37;16.40;99.90
49503;DHT22;35409;48.776;9.204;2023-10-13T03:56:19;16.30;99.90
49503;DHT22;35409;48.776;9.204;2023-10-13T03:58:55;16.20;99.90
49503;DHT22;35409;48.776;9.204;2023-10-13T04:01:25;16.10;99.90
49503;DHT22;35409;48.776;9.204;2023-10-13T04:04:00;16.10;99.90
49503;DHT22;35409;48.776;9.204;2023-10-13T04:06:32;16.20;99.90
49503;DHT22;35409;48.776;9.204;2023-10-13T04:09:22;16.20;99.90
49503;DHT22;35409;48.776;9.204;2023-10-13T04:11:58;16.20;99.90
49503;DHT22;35409;48.776;9.204;2023-10-13T04:14:37;16.20;99.90
49503;DHT22;35409;48.776;9.204;2023-10-13T04:17:21;16.10;99.90
49503;DHT22;35409;48.776;9.204;2023-10-13T04:19:54;16.10;99.90
49503;DHT22;35409;48.776;9.204;2023-10-13T04:22:36;15.90;99.90
49503;DHT22;35409;48.776;9.204;2023-10-13T04:25:25;15.80;99.90
49503;DHT22;35409;48.776;9.204;2023-10-13T04:28:08;15.70;99.90
49503;DHT22;35409;48.776;9.204;2023-10-13T04:30:48;15.50;99.90
49503;DHT22;35409;48.776;9.204;2023-10-13T04:33:30;15.30;99.90
49503;DHT22;35409;48.776;9.204;2023-10-13T04:36:14;15.20;99.90
49503;DHT22;35409;48.776;9.204;2023-10-13T04:39:07;15.10;99.90
49503;DHT22;35409;48.776;9.204;2023-10-13T04:41:34;15.00;99.90
49503;DHT22;35409;48.776;9.204;2023-10-13T04:44:23;14.80;99.90
49503;DHT22;35409;48.776;9.204;2023-10-13T04:47:07;14.70;99.90
49503;DHT22;35409;48.776;9.204;2023-10-13T04:49:44;14.70;99.90
49503;DHT22;35409;48.776;9.204;2023-10-13T04:52:13;14.60;99.90
49503;DHT22;35409;48.776;9.204;2023-10-13T04:54:52;14.60;99.90
49503;DHT22;35409;48.776;9.204;2023-10-13T04:57:22;14.60;99.90
49503;DHT22;35409;48.776;9.204;2023-10-13T04:59:50;14.60;99.90
49503;DHT22;35409;48.776;9.204;2023-10-13T05:02:34;14.60;99.90
49503;DHT22;35409;48.776;9.204;2023-10-13T05:05:02;14.70;99.90
49503;DHT22;35409;48.776;9.204;2023-10-13T05:07:31;14.70;99.90
49503;DHT22;35409;48.776;9.204;2023-10-13T05:10:16;14.70;99.90
49503;DHT22;35409;48.776;9.204;2023-10-13T05:13:00;14.80;99.90
49503;DHT22;35409;48.776;9.204;2023-10-13T05:15:48;14.90;99.90
49503;DHT22;35409;48.776;9.204;2023-10-13T05:18:33;14.90;99.90
49503;DHT22;35409;48.776;9.204;2023-10-13T05:21:17;15.00;99.90
49503;DHT22;35409;48.776;9.204;2023-10-13T05:24:02;15.20;99.90
49503;DHT22;35409;48.776;9.204;2023-10-13T05:26:46;15.50;99.90
49503;DHT22;35409;48.776;9.204;2023-10-13T05:29:30;15.70;99.90
49503;DHT22;35409;48.776;9.204;2023-10-13T05:32:14;15.80;99.90
49503;DHT22;35409;48.776;9.204;2023-10-13T05:34:58;15.90;99.90
49503;DHT22;35409;48.776;9.204;2023-10-13T05:37:42;16.00;99.90
49503;DHT22;35409;48.776;9.204;2023-10-13T05:40:26;16.10;99.90
49503;DHT22;35409;48.776;9.204;2023-10-13T05:43:10;16.10;99.90
49503;DHT22;35409;48.776;9.204;2023-10-13T05:46:00;16.20;99.90
49503;DHT22;35409;48.776;9.204;2023-10-13T05:48:44;16.20;99.90
49503;DHT22;35409;48.776;9.204;2023-10-13T05:51:29;16.30;99.90
49503;DHT22;35409;48.776;9.204;2023-10-13T05:54:03;16.30;99.90
49503;DHT22;35409;48.776;9.204;2023-10-13T05:56:51;16.30;99.90
49503;DHT22;35409;48.776;9.204;2023-10-13T05:59:37;16.40;99.90
49503;DHT22;35409;48.776;9.204;2023-10-13T06:02:22;16.40;99.90
49503;DHT22;35409;48.776;9.204;2023-10-13T06:05:08;16.50;99.90
49503;DHT22;35409;48.776;9.204;2023-10-13T06:07:53;16.60;99.90
49503;DHT22;35409;48.776;9.204;2023-10-13T06:10:38;16.60;99.90
49503;DHT22;35409;48.776;9.204;2023-10-13T06:13:23;16.60;99.90
49503;DHT22;35409;48.776;9.204;2023-10-13T06:16:14;16.60;99.90
49503;DHT22;35409;48.776;9.204;2023-10-13T06:18:59;16.50;99.90
49503;DHT22;35409;48.776;9.204;2023-10-13T06:21:44;16.50;99.90
49503;DHT22;35409;48.776;9.204;2023-10-13T06:24:29;16.50;99.90
49503;DHT22;35409;48.776;9.204;2023-10-13T06:27:13;16.50;99.90
49503;DHT22;35409;48.776;9.204;2023-10-13T06:29:58;16.50;99.90
49503;DHT22;35409;48.776;9.204;2023-10-13T06:32:24;16.40;99.90
49503;DHT22;35409;48.776;9.204;2023-10-13T06:34:56;16.40;99.90
49503;DHT22;35409;48.776;9.204;2023-10-13T06:37:32;16.40;99.90
49503;DHT22;35409;48.776;9.204;2023-10-13T06:40:08;16.40;99.90
49503;DHT22;35409;48.776;9.204;2023-10-13T06:42:59;16.40;99.90
49503;DHT22;35409;48.776;9.204;2023-10-13T06:45:38;16.40;99.90
49503;DHT22;35409;48.776;9.204;2023-10-13T06:48:05;16.40;99.90
49503;DHT22;35409;48.776;9.204;2023-10-13T06:50:31;16.50;99.90
49503;DHT22;35409;48.776;9.204;2023-10-13T06:53:04;16.60;99.90
49503;DHT22;35409;48.776;9.204;2023-10-13T06:55:30;16.80;99.90
49503;DHT22;35409;48.776;9.204;2023-10-13T06:58:01;17.00;99.90
49503;DHT22;35409;48.776;9.204;2023-10-13T07:00:27;17.00;99.90
49503;DHT22;35409;48.776;9.204;2023-10-13T07:02:56;17.10;99.90
49503;DHT22;35409;48.776;9.204;2023-10-13T07:05:57;17.20;99.90
49503;DHT22;35409;48.776;9.204;2023-10-13T07:08:24;17.40;99.90
49503;DHT22;35409;48.776;9.204;2023-10-13T07:10:54;17.40;99.90
49503;DHT22;35409;48.776;9.204;2023-10-13T07:13:43;17.50;99.90
49503;DHT22;35409;48.776;9.204;2023-10-13T07:16:15;17.50;99.90
49503;DHT22;35409;48.776;9.204;2023-10-13T07:18:41;17.50;99.90
49503;DHT22;35409;48.776;9.204;2023-10-13T07:21:18;17.70;99.90
49503;DHT22;35409;48.776;9.204;2023-10-13T07:23:55;17.90;99.90
49503;DHT22;35409;48.776;9.204;2023-10-13T07:26:34;17.90;99.90
49503;DHT22;35409;48.776;9.204;2023-10-13T07:28:59;18.10;99.90
49503;DHT22;35409;48.776;9.204;2023-10-13T07:31:25;18.20;99.90
49503;DHT22;35409;48.776;9.204;2023-10-13T07:33:52;18.30;99.90
49503;DHT22;35409;48.776;9.204;2023-10-13T07:36:26;18.40;99.90
49503;DHT22;35409;48.776;9.204;2023-10-13T07:39:05;18.40;99.90
49503;DHT22;35409;48.776;9.204;2023-10-13T07:41:50;18.50;99.90
49503;DHT22;35409;48.776;9.204;2023-10-13T07:44:35;18.50;99.90
49503;DHT22;35409;48.776;9.204;2023-10-13T07:47:02;18.60;99.90
49503;DHT22;35409;48.776;9.204;2023-10-13T07:49:35;18.70;99.90
49503;DHT22;35409;48.776;9.204;2023-10-13T07:52:11;18.70;99.90
49503;DHT22;35409;48.776;9.204;2023-10-13T07:54:50;18.90;99.90
49503;DHT22;35409;48.776;9.204;2023-10-13T07:57:25;19.00;98.50
49503;DHT22;35409;48.776;9.204;2023-10-13T07:59:56;19.10;96.40
49503;DHT22;35409;48.776;9.204;2023-10-13T08:02:34;19.30;96.90
49503;DHT22;35409;48.776;9.204;2023-10-13T08:05:19;19.50;98.00
49503;DHT22;35409;48.776;9.204;2023-10-13T08:08:05;19.80;98.00
49503;DHT22;35409;48.776;9.204;2023-10-13T08:10:40;19.80;97.70
49503;DHT22;35409;48.776;9.204;2023-10-13T08:13:07;19.80;98.00
49503;DHT22;35409;48.776;9.204;2023-10-13T08:15:40;20.00;97.90
49503;DHT22;35409;48.776;9.204;2023-10-13T08:18:12;20.00;97.10
49503;DHT22;35409;48.776;9.204;2023-10-13T08:20:45;20.10;97.70
49503;DHT22;35409;48.776;9.204;2023-10-13T08:23:11;20.10;97.70
49503;DHT22;35409;48.776;9.204;2023-10-13T08:25:40;20.20;96.30
49503;DHT22;35409;48.776;9.204;2023-10-13T08:28:24;20.30;95.40
49503;DHT22;35409;48.776;9.204;2023-10-13T08:31:05;20.50;95.30
49503;DHT22;35409;48.776;9.204;2023-10-13T08:33:51;20.60;94.90
49503;DHT22;35409;48.776;9.204;2023-10-13T08:36:24;20.70;94.60
49503;DHT22;35409;48.776;9.204;2023-10-13T08:38:56;20.90;94.70
49503;DHT22;35409;48.776;9.204;2023-10-13T08:41:23;21.10;94.10
49503;DHT22;35409;48.776;9.204;2023-10-13T08:43:50;21.30;94.10
49503;DHT22;35409;48.776;9.204;2023-10-13T08:46:17;21.40;93.80
49503;DHT22;35409;48.776;9.204;2023-10-13T08:48:59;21.50;93.80
49503;DHT22;35409;48.776;9.204;2023-10-13T08:51:52;21.70;93.60
49503;DHT22;35409;48.776;9.204;2023-10-13T08:54:40;22.00;94.20
49503;DHT22;35409;48.776;9.204;2023-10-13T08:57:11;22.20;92.80
49503;DHT22;35409;48.776;9.204;2023-10-13T08:59:58;22.30;92.70
49503;DHT22;35409;48.776;9.204;2023-10-13T09:02:44;22.50;92.30
49503;DHT22;35409;48.776;9.204;2023-10-13T09:05:25;22.60;92.20
49503;DHT22;35409;48.776;9.204;2023-10-13T09:08:14;22.80;92.00
49503;DHT22;35409;48.776;9.204;2023-10-13T09:11:00;22.90;91.80
49503;DHT22;35409;48.776;9.204;2023-10-13T09:26:42;24.40;99.50
49503;DHT22;35409;48.776;9.204;2023-10-13T09:29:21;24.40;98.60
49503;DHT22;35409;48.776;9.204;2023-10-13T09:31:48;24.40;98.10
49503;DHT22;35409;48.776;9.204;2023-10-13T09:34:25;24.50;97.70
49503;DHT22;35409;48.776;9.204;2023-10-13T09:37:00;24.60;97.30
49503;DHT22;35409;48.776;9.204;2023-10-13T09:39:28;24.70;97.80
49503;DHT22;35409;48.776;9.204;2023-10-13T09:42:06;24.80;97.40
49503;DHT22;35409;48.776;9.204;2023-10-13T09:44:36;24.90;96.90
49503;DHT22;35409;48.776;9.204;2023-10-13T09:47:03;25.00;96.80
49503;DHT22;35409;48.776;9.204;2023-10-13T10:20:32;26.40;98.40
49503;DHT22;35409;48.776;9.204;2023-10-13T10:23:05;26.40;97.20
49503;DHT22;35409;48.776;9.204;2023-10-13T10:25:35;26.40;96.50
49503;DHT22;35409;48.776;9.204;2023-10-13T10:28:02;26.60;95.90
49503;DHT22;35409;48.776;9.204;2023-10-13T10:30:33;26.60;95.50
49503;DHT22;35409;48.776;9.204;2023-10-13T10:33:01;26.50;95.20
49503;DHT22;35409;48.776;9.204;2023-10-13T10:35:34;26.60;95.20
49503;DHT22;35409;48.776;9.204;2023-10-13T10:38:15;26.60;92.30
49503;DHT22;35409;48.776;9.204;2023-10-13T10:40:56;26.80;90.10
49503;DHT22;35409;48.776;9.204;2023-10-13T10:43:42;27.00;81.30
49503;DHT22;35409;48.776;9.204;2023-10-13T10:46:15;27.10;79.30
49503;DHT22;35409;48.776;9.204;2023-10-13T10:48:42;27.10;78.70
49503;DHT22;35409;48.776;9.204;2023-10-13T10:51:12;27.00;78.60
49503;DHT22;35409;48.776;9.204;2023-10-13T10:53:41;26.90;78.50
49503;DHT22;35409;48.776;9.204;2023-10-13T10:56:11;26.90;78.30
49503;DHT22;35409;48.776;9.204;2023-10-13T10:58:56;27.00;83.00
49503;DHT22;35409;48.776;9.204;2023-10-13T11:01:27;27.10;81.90
49503;DHT22;35409;48.776;9.204;2023-10-13T11:04:14;27.30;80.50
49503;DHT22;35409;48.776;9.204;2023-10-13T11:06:56;27.50;78.90
49503;DHT22;35409;48.776;9.204;2023-10-13T11:09:33;27.40;78.90
49503;DHT22;35409;48.776;9.204;2023-10-13T11:12:12;27.30;78.30
49503;DHT22;35409;48.776;9.204;2023-10-13T11:14:43;27.30;78.40
49503;DHT22;35409;48.776;9.204;2023-10-13T11:17:21;27.30;78.40
49503;DHT22;35409;48.776;9.204;2023-10-13T11:19:52;27.50;78.50
49503;DHT22;35409;48.776;9.204;2023-10-13T11:22:21;27.60;79.00
49503;DHT22;35409;48.776;9.204;2023-10-13T11:25:08;27.60;82.90
49503;DHT22;35409;48.776;9.204;2023-10-13T11:27:41;27.70;83.70
49503;DHT22;35409;48.776;9.204;2023-10-13T11:30:19;27.80;84.10
49503;DHT22;35409;48.776;9.204;2023-10-13T11:33:06;27.80;83.70
49503;DHT22;35409;48.776;9.204;2023-10-13T11:35:39;27.70;83.90
49503;DHT22;35409;48.776;9.204;2023-10-13T11:38:24;27.70;83.80
49503;DHT22;35409;48.776;9.204;2023-10-13T11:41:00;27.80;83.60
49503;DHT22;35409;48.776;9.204;2023-10-13T11:43:43;27.80;88.30
49503;DHT22;35409;48.776;9.204;2023-10-13T11:46:13;28.00;88.80
49503;DHT22;35409;48.776;9.204;2023-10-13T11:54:05;28.70;65.60
49503;DHT22;35409;48.776;9.204;2023-10-13T11:56:30;28.90;65.90
49503;DHT22;35409;48.776;9.204;2023-10-13T11:58:56;29.10;65.30
49503;DHT22;35409;48.776;9.204;2023-10-13T12:01:27;29.40;65.00
49503;DHT22;35409;48.776;9.204;2023-10-13T12:04:12;29.70;64.70
49503;DHT22;35409;48.776;9.204;2023-10-13T12:06:58;30.10;64.30
49503;DHT22;35409;48.776;9.204;2023-10-13T12:09:42;30.40;63.00
49503;DHT22;35409;48.776;9.204;2023-10-13T12:12:21;30.50;62.80
49503;DHT22;35409;48.776;9.204;2023-10-13T12:14:46;30.50;62.60
49503;DHT22;35409;48.776;9.204;2023-10-13T12:17:29;30.60;62.40
49503;DHT22;35409;48.776;9.204;2023-10-13T12:20:03;30.70;62.00
49503;DHT22;35409;48.776;9.204;2023-10-13T12:22:39;30.60;62.20
49503;DHT22;35409;48.776;9.204;2023-10-13T12:25:10;30.80;61.40
49503;DHT22;35409;48.776;9.204;2023-10-13T12:28:10;31.00;61.00
49503;DHT22;35409;48.776;9.204;2023-10-13T12:30:45;31.10;60.90
49503;DHT22;35409;48.776;9.204;2023-10-13T12:33:23;31.20;61.00
49503;DHT22;35409;48.776;9.204;2023-10-13T12:36:02;31.40;60.80
49503;DHT22;35409;48.776;9.204;2023-10-13T14:25:14;30.40;54.40
49503;DHT22;35409;48.776;9.204;2023-10-13T14:27:43;30.30;55.00
49503;DHT22;35409;48.776;9.204;2023-10-13T14:30:08;30.10;55.20
49503;DHT22;35409;48.776;9.204;2023-10-13T14:32:34;30.00;55.30
49503;DHT22;35409;48.776;9.204;2023-10-13T14:35:06;29.90;55.10
49503;DHT22;35409;48.776;9.204;2023-10-13T14:37:40;29.80;54.80
49503;DHT22;35409;48.776;9.204;2023-10-13T14:40:06;29.60;54.90
49503;DHT22;35409;48.776;9.204;2023-10-13T14:42:38;29.50;54.70
49503;DHT22;35409;48.776;9.204;2023-10-13T14:45:06;29.40;54.80
49503;DHT22;35409;48.776;9.204;2023-10-13T14:47:38;29.40;54.70
49503;DHT22;35409;48.776;9.204;2023-10-13T14:50:05;29.30;55.00
49503;DHT22;35409;48.776;9.204;2023-10-13T14:52:31;29.20;55.10
49503;DHT22;35409;48.776;9.204;2023-10-13T14:54:58;29.20;55.30
49503;DHT22;35409;48.776;9.204;2023-10-13T14:57:24;29.20;54.90
49503;DHT22;35409;48.776;9.204;2023-10-13T14:59:56;29.20;54.70
49503;DHT22;35409;48.776;9.204;2023-10-13T15:02:23;29.00;54.90
49503;DHT22;35409;48.776;9.204;2023-10-13T15:04:48;28.90;54.70
49503;DHT22;35409;48.776;9.204;2023-10-13T15:07:15;28.90;54.30
49503;DHT22;35409;48.776;9.204;2023-10-13T15:09:42;28.90;54.50
49503;DHT22;35409;48.776;9.204;2023-10-13T15:12:11;28.80;54.30
49503;DHT22;35409;48.776;9.204;2023-10-13T15:14:38;28.70;55.10
49503;DHT22;35409;48.776;9.204;2023-10-13T15:17:04;28.60;54.40
49503;DHT22;35409;48.776;9.204;2023-10-13T15:19:32;28.60;54.50
49503;DHT22;35409;48.776;9.204;2023-10-13T15:22:02;28.50;54.90
49503;DHT22;35409;48.776;9.204;2023-10-13T15:24:32;28.40;55.50
49503;DHT22;35409;48.776;9.204;2023-10-13T15:27:01;28.40;54.50
49503;DHT22;35409;48.776;9.204;2023-10-13T15:29:34;28.40;54.20
49503;DHT22;35409;48.776;9.204;2023-10-13T15:32:04;28.40;54.20
49503;DHT22;35409;48.776;9.204;2023-10-13T15:34:31;28.30;54.20
49503;DHT22;35409;48.776;9.204;2023-10-13T15:36:58;28.20;54.10
49503;DHT22;35409;48.776;9.204;2023-10-13T15:39:24;28.00;54.00
49503;DHT22;35409;48.776;9.204;2023-10-13T15:41:53;27.90;54.00
49503;DHT22;35409;48.776;9.204;2023-10-13T15:44:19;27.80;54.20
49503;DHT22;35409;48.776;9.204;2023-10-13T15:46:46;27.60;54.30
49503;DHT22;35409;48.776;9.204;2023-10-13T15:49:17;27.40;54.60
49503;DHT22;35409;48.776;9.204;2023-10-13T15:51:43;27.30;55.00
49503;DHT22;35409;48.776;9.204;2023-10-13T15:54:09;27.10;54.90
49503;DHT22;35409;48.776;9.204;2023-10-13T15:56:42;27.00;55.20
49503;DHT22;35409;48.776;9.204;2023-10-13T15:59:09;26.90;55.30
49503;DHT22;35409;48.776;9.204;2023-10-13T16:01:34;26.70;55.40
49503;DHT22;35409;48.776;9.204;2023-10-13T16:43:18;25.10;56.90
49503;DHT22;35409;48.776;9.204;2023-10-13T16:45:43;24.90;57.90
49503;DHT22;35409;48.776;9.204;2023-10-13T16:48:10;24.70;58.40
49503;DHT22;35409;48.776;9.204;2023-10-13T16:50:39;24.60;75.80
49503;DHT22;35409;48.776;9.204;2023-10-13T16:53:07;24.40;70.50
49503;DHT22;35409;48.776;9.204;2023-10-13T16:55:33;24.10;69.50
49503;DHT22;35409;48.776;9.204;2023-10-13T16:57:59;23.90;75.60
49503;DHT22;35409;48.776;9.204;2023-10-13T17:00:24;23.90;80.30
49503;DHT22;35409;48.776;9.204;2023-10-13T17:02:56;23.70;81.50
49503;DHT22;35409;48.776;9.204;2023-10-13T17:05:22;23.60;84.20
49503;DHT22;35409;48.776;9.204;2023-10-13T17:07:53;23.50;81.40
49503;DHT22;35409;48.776;9.204;2023-10-13T17:10:19;23.30;79.20
49503;DHT22;35409;48.776;9.204;2023-10-13T17:12:45;23.20;70.80
49503;DHT22;35409;48.776;9.204;2023-10-13T17:15:11;23.10;71.00
49503;DHT22;35409;48.776;9.204;2023-10-13T17:17:46;23.10;71.80
49503;DHT22;35409;48.776;9.204;2023-10-13T17:20:12;23.10;71.10
49503;DHT22;35409;48.776;9.204;2023-10-13T17:22:37;23.10;71.10
49503;DHT22;35409;48.776;9.204;2023-10-13T17:25:04;23.10;71.00
49503;DHT22;35409;48.776;9.204;2023-10-13T17:27:30;23.10;71.20
49503;DHT22;35409;48.776;9.204;2023-10-13T17:30:00;23.10;71.10
49503;DHT22;35409;48.776;9.204;2023-10-13T17:32:25;23.20;71.20
49503;DHT22;35409;48.776;9.204;2023-10-13T17:34:51;23.20;71.20
49503;DHT22;35409;48.776;9.204;2023-10-13T17:37:16;23.20;71.30
49503;DHT22;35409;48.776;9.204;2023-10-13T17:39:42;23.20;71.50
49503;DHT22;35409;48.776;9.204;2023-10-13T17:42:09;23.20;71.60
49503;DHT22;35409;48.776;9.204;2023-10-13T17:44:39;23.20;71.90
49503;DHT22;35409;48.776;9.204;2023-10-13T17:47:04;23.20;72.00
49503;DHT22;35409;48.776;9.204;2023-10-13T17:49:36;23.20;72.20
49503;DHT22;35409;48.776;9.204;2023-10-13T17:52:05;23.20;72.60
49503;DHT22;35409;48.776;9.204;2023-10-13T17:54:30;23.20;72.90
49503;DHT22;35409;48.776;9.204;2023-10-13T17:56:56;23.20;73.10
49503;DHT22;35409;48.776;9.204;2023-10-13T17:59:22;23.20;73.30
49503;DHT22;35409;48.776;9.204;2023-10-13T18:01:47;23.20;73.70
49503;DHT22;35409;48.776;9.204;2023-10-13T18:04:14;23.20;73.90
49503;DHT22;35409;48.776;9.204;2023-10-13T18:06:40;23.10;74.40
49503;DHT22;35409;48.776;9.204;2023-10-13T18:09:07;23.10;74.60
49503;DHT22;35409;48.776;9.204;2023-10-13T18:11:37;23.00;74.80
49503;DHT22;35409;48.776;9.204;2023-10-13T18:14:02;23.00;74.20
49503;DHT22;35409;48.776;9.204;2023-10-13T18:16:29;23.00;74.70
49503;DHT22;35409;48.776;9.204;2023-10-13T18:18:55;22.90;75.30
49503;DHT22;35409;48.776;9.204;2023-10-13T18:21:24;22.90;75.90
49503;DHT22;35409;48.776;9.204;2023-10-13T18:23:51;22.90;76.40
49503;DHT22;35409;48.776;9.204;2023-10-13T18:26:18;22.90;76.90
49503;DHT22;35409;48.776;9.204;2023-10-13T18:28:48;22.90;77.50
49503;DHT22;35409;48.776;9.204;2023-10-13T18:31:15;22.90;78.00
49503;DHT22;35409;48.776;9.204;2023-10-13T18:33:43;22.80;78.40
49503;DHT22;35409;48.776;9.204;2023-10-13T18:36:13;22.70;79.40
49503;DHT22;35409;48.776;9.204;2023-10-13T18:38:49;22.70;84.70
49503;DHT22;35409;48.776;9.204;2023-10-13T18:41:15;22.70;85.30
49503;DHT22;35409;48.776;9.204;2023-10-13T18:43:45;22.60;86.80
49503;DHT22;35409;48.776;9.204;2023-10-13T18:46:10;22.60;92.40
49503;DHT22;35409;48.776;9.204;2023-10-13T18:48:40;22.50;94.30
49503;DHT22;35409;48.776;9.204;2023-10-13T18:51:08;22.50;94.40
49503;DHT22;35409;48.776;9.204;2023-10-13T18:53:37;22.50;94.30
49503;DHT22;35409;48.776;9.204;2023-10-13T20:58:24;21.90;90.80
49503;DHT22;35409;48.776;9.204;2023-10-13T21:00:51;21.90;90.30
49503;DHT22;35409;48.776;9.204;2023-10-13T21:03:20;21.90;89.90
49503;DHT22;35409;48.776;9.204;2023-10-13T21:05:46;21.90;89.70
49503;DHT22;35409;48.776;9.204;2023-10-13T21:08:12;21.90;89.20
49503;DHT22;35409;48.776;9.204;2023-10-13T21:10:39;21.90;89.20
49503;DHT22;35409;48.776;9.204;2023-10-13T21:13:05;21.90;88.90
49503;DHT22;35409;48.776;9.204;2023-10-13T21:15:30;21.90;88.90
49503;DHT22;35409;48.776;9.204;2023-10-13T21:18:00;21.90;88.80
49503;DHT22;35409;48.776;9.204;2023-10-13T21:20:32;21.80;89.30
49503;DHT22;35409;48.776;9.204;2023-10-13T21:22:57;21.80;89.30
49503;DHT22;35409;48.776;9.204;2023-10-13T21:25:23;21.70;89.50
49503;DHT22;35409;48.776;9.204;2023-10-13T21:27:55;21.70;89.40